createdAt,value
2023-03-26T00:01:55.356Z,8.99
2023-03-26T00:04:25.432Z,8.98
2023-03-26T00:06:54.347Z,8.96
2023-03-26T00:09:22.519Z,8.96
2023-03-26T00:11:50.942Z,8.96
2023-03-26T00:14:19.158Z,8.95
2023-03-26T00:16:49.894Z,8.92
2023-03-26T00:19:18.167Z,8.91
2023-03-26T00:21:48.484Z,8.90
2023-03-26T00:24:17.604Z,8.88
2023-03-26T00:26:48.784Z,8.87
2023-03-26T00:29:17.026Z,8.84
2023-03-26T00:31:46.651Z,8.83
2023-03-26T00:34:18.716Z,8.80
2023-03-26T00:36:47.415Z,8.78
2023-03-26T00:39:17.910Z,8.79
2023-03-26T00:41:46.769Z,8.78
2023-03-26T00:44:14.868Z,8.77
2023-03-26T00:46:42.940Z,8.77
2023-03-26T00:49:14.924Z,8.77
2023-03-26T00:51:42.928Z,8.76
2023-03-26T00:54:12.054Z,8.75
2023-03-26T00:56:40.161Z,8.73
2023-03-26T00:59:11.876Z,8.70
2023-03-26T01:01:40.281Z,8.66
2023-03-26T01:04:31.821Z,8.65
2023-03-26T01:07:10.913Z,8.62
2023-03-26T01:09:45.904Z,8.59
2023-03-26T01:12:18.731Z,8.56
2023-03-26T01:14:49.653Z,8.53
2023-03-26T01:17:18.821Z,8.49
2023-03-26T01:20:15.214Z,8.44
2023-03-26T01:22:49.618Z,8.39
2023-03-26T01:25:18.632Z,8.34
2023-03-26T01:27:54.664Z,8.30
2023-03-26T01:30:43.516Z,8.24
2023-03-26T01:33:56.658Z,8.19
2023-03-26T01:36:38.335Z,8.14
2023-03-26T01:39:18.719Z,8.09
2023-03-26T01:41:57.305Z,8.04
2023-03-26T01:44:34.092Z,8.00
2023-03-26T01:47:03.284Z,7.97
2023-03-26T01:49:31.972Z,7.94
2023-03-26T01:52:00.008Z,7.90
2023-03-26T01:54:31.734Z,7.83
2023-03-26T01:57:16.044Z,7.77
2023-03-26T02:00:18.228Z,7.71
2023-03-26T02:03:08.942Z,7.64
2023-03-26T02:05:54.696Z,7.57
2023-03-26T02:08:36.019Z,7.50
2023-03-26T02:11:14.331Z,7.42
2023-03-26T02:13:45.966Z,7.33
2023-03-26T02:16:17.244Z,7.26
2023-03-26T02:18:51.403Z,7.21
2023-03-26T02:21:22.351Z,7.19
2023-03-26T02:23:58.155Z,7.17
2023-03-26T02:26:26.273Z,7.11
2023-03-26T02:29:02.332Z,7.07
2023-03-26T02:31:30.646Z,7.05
2023-03-26T02:33:58.886Z,7.03
2023-03-26T02:36:28.154Z,7.01
2023-03-26T02:39:00.514Z,6.97
2023-03-26T02:41:30.426Z,6.92
2023-03-26T02:44:02.120Z,6.88
2023-03-26T02:46:53.734Z,6.84
2023-03-26T02:49:40.857Z,6.81
2023-03-26T02:52:09.844Z,6.79
2023-03-26T02:54:38.298Z,6.79
2023-03-26T02:57:09.339Z,6.77
2023-03-26T02:59:52.996Z,6.74
2023-03-26T03:02:41.437Z,6.72
2023-03-26T03:05:29.001Z,6.69
2023-03-26T03:08:22.070Z,6.65
2023-03-26T03:11:14.838Z,6.62
2023-03-26T03:13:51.032Z,6.61
2023-03-26T03:16:27.808Z,6.60
2023-03-26T03:18:58.022Z,6.61
2023-03-26T03:21:29.335Z,6.60
2023-03-26T03:23:59.987Z,6.60
2023-03-26T03:26:30.550Z,6.57
2023-03-26T03:29:00.972Z,6.58
2023-03-26T03:31:29.273Z,6.58
2023-03-26T03:34:01.472Z,6.57
2023-03-26T03:36:33.167Z,6.54
2023-03-26T03:39:08.920Z,6.50
2023-03-26T03:41:37.711Z,6.43
2023-03-26T03:44:08.037Z,6.40
2023-03-26T03:46:36.780Z,6.32
2023-03-26T03:49:05.206Z,6.27
2023-03-26T03:51:37.268Z,6.19
2023-03-26T03:54:11.677Z,6.06
2023-03-26T03:57:00.167Z,5.93
2023-03-26T03:59:47.445Z,5.83
2023-03-26T04:02:35.203Z,5.77
2023-03-26T04:05:06.320Z,5.71
2023-03-26T04:07:35.934Z,5.65
2023-03-26T04:10:08.890Z,5.56
2023-03-26T04:12:55.526Z,5.44
2023-03-26T04:15:36.717Z,5.34
2023-03-26T04:18:10.497Z,5.29
2023-03-26T04:20:42.135Z,5.30
2023-03-26T04:23:14.341Z,5.44
2023-03-26T04:25:43.787Z,5.45
2023-03-26T04:28:46.529Z,5.34
2023-03-26T04:31:29.141Z,5.22
2023-03-26T04:34:05.761Z,5.13
2023-03-26T04:36:35.502Z,5.09
2023-03-26T04:39:05.349Z,5.05
2023-03-26T04:41:59.096Z,5.04
2023-03-26T04:44:32.081Z,5.04
2023-03-26T04:47:08.140Z,5.06
2023-03-26T04:49:42.885Z,5.06
2023-03-26T04:52:12.972Z,5.11
2023-03-26T04:54:59.797Z,5.14
2023-03-26T04:57:39.740Z,5.20
2023-03-26T05:00:17.648Z,5.24
2023-03-26T05:02:50.525Z,5.43
2023-03-26T05:05:19.118Z,6.33
2023-03-26T05:07:47.374Z,7.51
2023-03-26T05:10:17.400Z,8.68
2023-03-26T05:12:52.476Z,9.73
2023-03-26T05:15:28.999Z,10.70
2023-03-26T05:18:10.737Z,11.67
2023-03-26T05:20:42.482Z,12.30
2023-03-26T05:23:11.131Z,12.73
2023-03-26T05:25:42.800Z,13.08
2023-03-26T05:28:16.077Z,13.02
2023-03-26T05:30:54.458Z,12.67
2023-03-26T05:33:24.025Z,12.61
2023-03-26T05:36:01.382Z,12.84
2023-03-26T05:38:31.200Z,13.16
2023-03-26T05:41:06.278Z,13.59
2023-03-26T05:43:35.539Z,13.55
2023-03-26T05:46:33.134Z,13.72
2023-03-26T05:49:01.577Z,13.89
2023-03-26T05:51:32.205Z,13.99
2023-03-26T05:54:13.579Z,14.09
2023-03-26T05:57:01.857Z,13.93
2023-03-26T05:59:53.546Z,13.87
2023-03-26T06:02:40.137Z,13.88
2023-03-26T06:05:27.379Z,13.75
2023-03-26T06:08:16.143Z,13.50
2023-03-26T06:10:51.613Z,13.45
2023-03-26T06:13:19.859Z,13.60
2023-03-26T06:15:50.518Z,13.68
2023-03-26T06:18:26.994Z,13.86
2023-03-26T06:21:27.628Z,13.92
2023-03-26T06:24:05.080Z,14.34
2023-03-26T06:26:49.126Z,15.06
2023-03-26T06:29:40.446Z,15.48
2023-03-26T06:32:40.975Z,16.01
2023-03-26T06:35:12.638Z,16.12
2023-03-26T06:37:42.550Z,16.17
2023-03-26T06:40:11.984Z,16.06
2023-03-26T06:43:09.477Z,16.08
2023-03-26T06:45:52.450Z,16.04
2023-03-26T06:48:26.223Z,15.96
2023-03-26T06:51:17.610Z,16.00
2023-03-26T06:54:15.513Z,16.27
2023-03-26T06:57:10.070Z,16.59
2023-03-26T07:00:06.151Z,16.49
2023-03-26T07:02:53.023Z,16.41
2023-03-26T07:05:43.743Z,16.38
2023-03-26T07:08:41.005Z,16.33
2023-03-26T07:11:27.538Z,16.46
2023-03-26T07:14:18.609Z,16.51
2023-03-26T07:17:04.615Z,16.61
2023-03-26T07:19:54.080Z,16.42
2023-03-26T07:22:26.133Z,16.13
2023-03-26T07:25:14.496Z,16.12
2023-03-26T07:28:20.661Z,16.25
2023-03-26T07:31:07.054Z,16.12
2023-03-26T07:34:08.273Z,15.84
2023-03-26T07:37:07.503Z,15.75
2023-03-26T07:40:09.669Z,15.72
2023-03-26T07:44:12.654Z,15.74
2023-03-26T07:46:55.974Z,15.67
2023-03-26T07:49:43.519Z,15.90
2023-03-26T07:52:31.763Z,16.13
2023-03-26T07:55:15.643Z,16.22
2023-03-26T07:58:20.946Z,16.06
2023-03-26T08:01:35.022Z,16.32
2023-03-26T08:04:26.475Z,16.40
2023-03-26T08:07:45.367Z,16.19
2023-03-26T08:10:32.879Z,16.47
2023-03-26T08:13:25.552Z,16.96
2023-03-26T08:16:08.206Z,17.08
2023-03-26T08:19:03.359Z,17.04
2023-03-26T08:21:39.848Z,16.94
2023-03-26T08:24:30.626Z,17.04
2023-03-26T08:27:02.700Z,17.04
2023-03-26T08:29:59.850Z,16.70
2023-03-26T08:32:28.553Z,16.74
2023-03-26T08:34:57.627Z,16.69
2023-03-26T08:37:27.374Z,16.64
2023-03-26T08:39:55.778Z,16.88
2023-03-26T08:42:36.876Z,17.11
2023-03-26T08:45:11.623Z,17.71
2023-03-26T08:48:17.995Z,18.09
2023-03-26T08:51:07.968Z,18.40
2023-03-26T08:53:59.995Z,18.73
2023-03-26T08:56:49.743Z,19.16
2023-03-26T08:59:35.468Z,19.45
2023-03-26T09:02:43.470Z,19.76
2023-03-26T09:05:36.371Z,19.58
2023-03-26T09:08:22.514Z,19.58
2023-03-26T09:11:03.358Z,19.77
2023-03-26T09:13:45.430Z,19.95
2023-03-26T09:16:31.914Z,20.03
2023-03-26T09:19:15.735Z,20.13
2023-03-26T09:22:11.702Z,20.27
2023-03-26T09:25:00.698Z,20.37
2023-03-26T09:27:47.634Z,20.28
2023-03-26T09:30:39.865Z,20.22
2023-03-26T09:33:23.565Z,19.87
2023-03-26T09:35:55.268Z,19.52
2023-03-26T09:38:58.651Z,19.51
2023-03-26T09:41:36.501Z,19.66
2023-03-26T09:44:04.457Z,19.73
2023-03-26T09:46:51.211Z,19.80
2023-03-26T09:49:39.542Z,19.86
2023-03-26T09:52:25.485Z,19.67
2023-03-26T09:55:15.245Z,19.56
2023-03-26T09:57:59.735Z,19.69
2023-03-26T10:01:01.200Z,19.67
2023-03-26T10:03:35.069Z,20.08
2023-03-26T10:06:06.913Z,20.23
2023-03-26T10:08:55.973Z,20.66
2023-03-26T10:11:29.077Z,21.01
2023-03-26T10:14:23.760Z,21.08
2023-03-26T10:17:20.720Z,21.20
2023-03-26T10:20:04.928Z,21.13
2023-03-26T10:22:53.468Z,21.22
2023-03-26T10:25:31.118Z,21.00
2023-03-26T10:28:21.206Z,20.63
2023-03-26T10:31:24.199Z,20.61
2023-03-26T10:34:28.360Z,20.76
2023-03-26T10:37:16.448Z,20.64
2023-03-26T10:40:06.974Z,20.58
2023-03-26T10:43:08.394Z,20.46
2023-03-26T10:46:13.078Z,20.33
2023-03-26T10:49:20.825Z,19.88
2023-03-26T10:51:56.674Z,19.16
2023-03-26T10:54:46.253Z,19.16
2023-03-26T10:57:53.943Z,18.92
2023-03-26T11:00:27.039Z,19.14
2023-03-26T11:02:55.001Z,19.66
2023-03-26T11:05:48.203Z,19.77
2023-03-26T11:08:31.114Z,19.90
2023-03-26T11:11:26.005Z,19.86
2023-03-26T11:14:31.850Z,19.97
2023-03-26T11:17:05.753Z,20.26
2023-03-26T11:19:37.197Z,20.48
2023-03-26T11:22:29.438Z,20.58
2023-03-26T11:25:26.364Z,20.84
2023-03-26T11:28:28.358Z,20.91
2023-03-26T11:31:02.172Z,20.60
2023-03-26T11:33:38.082Z,20.21
2023-03-26T11:36:21.770Z,19.85
2023-03-26T11:38:52.515Z,19.69
2023-03-26T11:41:31.388Z,19.42
2023-03-26T11:44:13.990Z,18.91
2023-03-26T11:46:46.304Z,18.51
2023-03-26T11:49:19.748Z,18.52
2023-03-26T11:51:49.396Z,18.65
2023-03-26T11:54:18.075Z,18.59
2023-03-26T11:57:07.273Z,18.70
2023-03-26T11:59:56.525Z,19.09
2023-03-26T12:02:34.235Z,19.44
2023-03-26T12:05:15.306Z,19.52
2023-03-26T12:07:52.689Z,19.27
2023-03-26T12:10:24.097Z,18.94
2023-03-26T12:12:58.295Z,18.69
2023-03-26T12:15:28.349Z,18.77
2023-03-26T12:17:58.316Z,19.02
2023-03-26T12:20:26.883Z,19.41
2023-03-26T12:22:59.674Z,19.75
2023-03-26T12:25:35.679Z,19.79
2023-03-26T12:28:14.348Z,19.79
2023-03-26T12:30:55.137Z,19.88
2023-03-26T12:33:27.324Z,20.06
2023-03-26T12:36:00.631Z,20.11
2023-03-26T12:38:30.264Z,19.98
2023-03-26T12:41:06.685Z,19.88
2023-03-26T12:44:48.103Z,19.83
2023-03-26T12:47:58.101Z,19.80
2023-03-26T12:49:28.629Z,19.66
2023-03-26T12:52:14.979Z,19.37
2023-03-26T12:54:58.671Z,19.14
2023-03-26T12:57:43.669Z,19.00
2023-03-26T13:00:41.020Z,18.65
2023-03-26T13:03:18.281Z,18.32
2023-03-26T13:06:24.083Z,18.21
2023-03-26T13:09:10.468Z,18.14
2023-03-26T13:12:00.450Z,17.96
2023-03-26T13:14:34.348Z,17.57
2023-03-26T13:17:11.656Z,17.24
2023-03-26T13:20:00.313Z,16.94
2023-03-26T13:22:43.214Z,16.82
2023-03-26T13:25:14.269Z,16.76
2023-03-26T13:27:48.474Z,16.60
2023-03-26T13:30:16.392Z,16.54
2023-03-26T13:33:05.941Z,16.67
2023-03-26T13:36:21.922Z,16.91
2023-03-26T13:39:08.177Z,17.03
2023-03-26T13:41:51.532Z,17.04
2023-03-26T13:44:28.811Z,17.08
2023-03-26T13:47:04.966Z,16.80
2023-03-26T13:49:41.143Z,16.40
2023-03-26T13:52:27.166Z,16.03
2023-03-26T13:55:25.408Z,15.77
2023-03-26T13:58:02.180Z,15.47
2023-03-26T14:00:54.700Z,15.27
2023-03-26T14:03:35.759Z,15.13
2023-03-26T14:06:23.145Z,15.13
2023-03-26T14:09:27.140Z,15.22
2023-03-26T14:12:21.557Z,15.25
2023-03-26T14:15:04.231Z,15.23
2023-03-26T14:17:47.618Z,15.27
2023-03-26T14:20:34.279Z,15.43
2023-03-26T14:23:23.552Z,15.57
2023-03-26T14:25:56.171Z,15.67
2023-03-26T14:28:42.713Z,15.68
2023-03-26T14:31:20.850Z,15.68
2023-03-26T14:34:15.060Z,15.61
2023-03-26T14:37:08.170Z,15.51
2023-03-26T14:39:48.424Z,15.40
2023-03-26T14:42:30.114Z,15.24
2023-03-26T14:45:46.047Z,15.08
2023-03-26T14:48:38.306Z,14.85
2023-03-26T14:51:28.218Z,14.66
2023-03-26T14:54:02.481Z,14.48
2023-03-26T14:56:33.618Z,14.35
2023-03-26T14:59:07.615Z,14.26
2023-03-26T15:01:57.004Z,14.26
2023-03-26T15:04:28.206Z,14.33
2023-03-26T15:07:24.028Z,14.45
2023-03-26T15:10:17.097Z,14.63
2023-03-26T15:13:06.877Z,14.64
2023-03-26T15:15:53.891Z,14.56
2023-03-26T15:18:53.331Z,14.47
2023-03-26T15:21:52.389Z,14.39
2023-03-26T15:24:27.114Z,14.27
2023-03-26T15:27:26.956Z,14.17
2023-03-26T15:30:04.518Z,14.12
2023-03-26T15:32:58.188Z,14.09
2023-03-26T15:36:04.894Z,14.08
2023-03-26T15:38:50.757Z,14.07
2023-03-26T15:41:42.171Z,14.05
2023-03-26T15:44:25.092Z,14.04
2023-03-26T15:47:33.305Z,14.06
2023-03-26T15:50:45.094Z,14.09
2023-03-26T15:53:35.071Z,14.06
2023-03-26T15:56:10.327Z,14.06
2023-03-26T15:59:05.412Z,14.06
2023-03-26T16:02:04.213Z,14.05
2023-03-26T16:04:54.194Z,13.98
2023-03-26T16:07:43.864Z,13.87
2023-03-26T16:10:28.371Z,13.71
2023-03-26T16:13:14.525Z,13.55
2023-03-26T16:15:43.984Z,13.40
2023-03-26T16:18:15.788Z,13.27
2023-03-26T16:20:50.800Z,13.13
2023-03-26T16:23:24.734Z,12.99
2023-03-26T16:26:08.260Z,12.86
2023-03-26T16:29:02.937Z,12.74
2023-03-26T16:31:38.718Z,12.61
2023-03-26T16:34:21.630Z,12.49
2023-03-26T16:36:53.128Z,12.37
2023-03-26T16:39:44.318Z,12.26
2023-03-26T16:42:15.819Z,12.14
2023-03-26T16:45:11.725Z,12.04
2023-03-26T16:48:18.250Z,11.94
2023-03-26T16:51:06.770Z,11.82
2023-03-26T16:53:41.752Z,11.73
2023-03-26T16:56:12.967Z,11.65
2023-03-26T16:58:49.411Z,11.56
2023-03-26T17:01:28.600Z,11.47
2023-03-26T17:04:20.671Z,11.37
2023-03-26T17:07:09.130Z,11.30
2023-03-26T17:10:15.099Z,11.30
2023-03-26T17:12:55.642Z,11.27
2023-03-26T17:15:45.063Z,11.20
2023-03-26T17:18:43.764Z,11.05
2023-03-26T17:21:45.752Z,10.83
2023-03-26T17:24:26.916Z,10.65
2023-03-26T17:27:25.551Z,10.51
2023-03-26T17:30:32.527Z,10.38
2023-03-26T17:33:03.751Z,10.23
2023-03-26T17:35:47.391Z,10.06
2023-03-26T17:38:15.486Z,9.87
2023-03-26T17:40:48.679Z,9.73
2023-03-26T17:43:37.228Z,9.61
2023-03-26T17:46:13.978Z,9.47
2023-03-26T17:48:47.100Z,9.27
2023-03-26T17:51:37.241Z,9.10
2023-03-26T17:54:34.224Z,8.95
2023-03-26T17:57:25.545Z,8.77
2023-03-26T17:59:58.136Z,8.63
2023-03-26T18:02:42.411Z,8.52
2023-03-26T18:05:14.554Z,8.45
2023-03-26T18:08:17.932Z,8.42
2023-03-26T18:11:12.523Z,8.37
2023-03-26T18:13:59.433Z,8.32
2023-03-26T18:16:49.776Z,8.26
2023-03-26T18:19:22.237Z,8.18
2023-03-26T18:21:59.004Z,8.02
2023-03-26T18:24:31.977Z,7.83
2023-03-26T18:27:09.552Z,7.68
2023-03-26T18:29:44.137Z,7.56
2023-03-26T18:32:12.401Z,7.48
2023-03-26T18:34:50.136Z,7.42
2023-03-26T18:37:23.097Z,7.37
2023-03-26T18:40:18.331Z,7.36
2023-03-26T18:42:49.685Z,7.38
2023-03-26T18:45:34.255Z,7.42
2023-03-26T18:48:10.622Z,7.47
2023-03-26T18:50:42.072Z,7.49
2023-03-26T18:53:24.707Z,7.48
2023-03-26T18:55:56.324Z,7.36
2023-03-26T18:58:43.949Z,7.26
2023-03-26T19:01:23.718Z,7.16
2023-03-26T19:03:54.770Z,7.13
2023-03-26T19:06:23.832Z,7.12
2023-03-26T19:08:53.298Z,7.08
2023-03-26T19:11:22.017Z,7.03
2023-03-26T19:14:03.304Z,6.98
2023-03-26T19:16:35.676Z,6.93
2023-03-26T19:19:06.105Z,6.89
2023-03-26T19:21:36.328Z,6.84
2023-03-26T19:24:05.147Z,6.77
2023-03-26T19:26:34.313Z,6.72
2023-03-26T19:29:03.019Z,6.65
2023-03-26T19:31:38.135Z,6.55
2023-03-26T19:34:26.205Z,6.49
2023-03-26T19:36:59.894Z,6.41
2023-03-26T19:39:55.507Z,6.34
2023-03-26T19:42:43.121Z,6.26
2023-03-26T19:45:23.236Z,6.18
2023-03-26T19:48:00.450Z,6.12
2023-03-26T19:50:34.429Z,6.07
2023-03-26T19:53:16.891Z,5.98
2023-03-26T19:56:04.511Z,5.90
2023-03-26T19:58:35.787Z,5.79
2023-03-26T20:01:04.947Z,5.72
2023-03-26T20:03:44.619Z,5.67
2023-03-26T20:06:15.893Z,5.62
2023-03-26T20:08:44.536Z,5.56
2023-03-26T20:11:16.796Z,5.51
2023-03-26T20:13:44.658Z,5.47
2023-03-26T20:16:35.189Z,5.44
2023-03-26T20:19:04.387Z,5.42
2023-03-26T20:21:34.883Z,5.38
2023-03-26T20:24:14.601Z,5.35
2023-03-26T20:26:43.910Z,5.32
2023-03-26T20:29:13.107Z,5.31
2023-03-26T20:31:42.126Z,5.27
2023-03-26T20:34:24.616Z,5.20
2023-03-26T20:36:55.495Z,5.14
2023-03-26T20:39:25.056Z,5.11
2023-03-26T20:41:54.876Z,5.08
2023-03-26T20:44:23.584Z,5.07
2023-03-26T20:46:58.933Z,5.02
2023-03-26T20:49:30.131Z,4.96
2023-03-26T20:52:00.496Z,4.91
2023-03-26T20:54:31.990Z,4.83
2023-03-26T20:57:00.368Z,4.77
2023-03-26T20:59:36.121Z,4.72
2023-03-26T21:02:06.910Z,4.65
2023-03-26T21:04:35.256Z,4.59
2023-03-26T21:07:17.539Z,4.53
2023-03-26T21:09:49.362Z,4.50
2023-03-26T21:12:30.495Z,4.45
2023-03-26T21:15:01.780Z,4.41
2023-03-26T21:17:33.454Z,4.44
2023-03-26T21:20:13.678Z,4.46
2023-03-26T21:22:46.450Z,4.46
2023-03-26T21:25:41.805Z,4.46
2023-03-26T21:28:41.847Z,4.45
2023-03-26T21:31:22.045Z,4.43
2023-03-26T21:33:51.067Z,4.47
2023-03-26T21:36:22.024Z,4.52
2023-03-26T21:38:50.776Z,4.55
2023-03-26T21:41:23.922Z,4.57
2023-03-26T21:43:51.951Z,4.58
2023-03-26T21:46:25.758Z,4.57
2023-03-26T21:48:55.397Z,4.55
2023-03-26T21:51:27.221Z,4.52
2023-03-26T21:53:56.096Z,4.46
2023-03-26T21:56:50.641Z,4.43
2023-03-26T21:59:46.761Z,4.47
2023-03-26T22:02:43.672Z,4.44
2023-03-26T22:05:16.445Z,4.40
2023-03-26T22:08:00.508Z,4.37
2023-03-26T22:10:31.081Z,4.35
2023-03-26T22:12:59.857Z,4.35
2023-03-26T22:15:30.917Z,4.32
2023-03-26T22:18:04.048Z,4.28
2023-03-26T22:20:32.109Z,4.21
2023-03-26T22:23:01.016Z,4.12
2023-03-26T22:25:31.218Z,3.96
2023-03-26T22:28:04.642Z,3.83
2023-03-26T22:30:33.659Z,3.75
2023-03-26T22:33:01.619Z,3.70
2023-03-26T22:35:29.950Z,3.66
2023-03-26T22:38:00.457Z,3.63
2023-03-26T22:40:29.670Z,3.62
2023-03-26T22:43:15.808Z,3.60
2023-03-26T22:46:00.308Z,3.55
2023-03-26T22:48:32.026Z,3.54
2023-03-26T22:51:03.221Z,3.56
2023-03-26T22:53:32.423Z,3.54
2023-03-26T22:56:01.028Z,3.47
2023-03-26T22:58:30.010Z,3.43
2023-03-26T23:01:08.419Z,3.45
2023-03-26T23:03:37.310Z,3.46
2023-03-26T23:06:33.378Z,3.42
2023-03-26T23:09:01.407Z,3.41
2023-03-26T23:11:31.311Z,3.41
2023-03-26T23:13:59.498Z,3.40
2023-03-26T23:16:28.142Z,3.36
2023-03-26T23:18:56.147Z,3.36
2023-03-26T23:21:24.875Z,3.35
2023-03-26T23:23:52.921Z,3.35
2023-03-26T23:26:21.632Z,3.34
2023-03-26T23:28:51.302Z,3.30
2023-03-26T23:31:21.921Z,3.29
2023-03-26T23:33:50.626Z,3.29
2023-03-26T23:36:20.642Z,3.32
2023-03-26T23:38:49.690Z,3.30
2023-03-26T23:41:21.617Z,3.28
2023-03-26T23:43:54.389Z,3.26
2023-03-26T23:46:30.977Z,3.22
2023-03-26T23:49:02.655Z,3.19
2023-03-26T23:51:32.407Z,3.24
2023-03-26T23:54:01.750Z,3.32
2023-03-26T23:56:30.107Z,3.41
2023-03-26T23:59:00.921Z,3.46
